Search for airport 
image banner adimage banner adimage banner ad
image banner ad

35CN - Farnsworth Ranch Airstrip

Located in Grimes, United States

ICAO - 35CN, IATA -

Data provided by Airmate  

General information

Coordinates: N39°5'60" W121°56'4"
Elevation is 50 feet MSL.
Magnetic variation is 16° East
View others Airports in California

Operational data

Special qualification required
Current time UTC:
Current local time:
Weather at : KMYV - Yuba County ( 31 km )
METAR: KMYV 210153Z AUTO 18006KT 10SM CLR 30/02 A2990 RMK AO2 SLP127 T03000017
View NOTAMs / SUP AIP / TFR affecting this airport [VIEW]
Communications frequencies: [VIEW]

Runways:

RWY identifierQFULength (ft)Width (ft)SurfaceLDA (ft)
N260050GRAVEL
S260050GRAVEL

Airport contact information

Address: Grimes United States

Satellite view of 35CN